createdAt,value
2022-09-15T00:00:31.174Z,98391.59
2022-09-15T00:05:33.830Z,98389.72
2022-09-15T00:10:37.867Z,98395.59
2022-09-15T00:15:40.688Z,98394.78
2022-09-15T00:20:45.171Z,98395.59
2022-09-15T00:25:50.733Z,98386.94
2022-09-15T00:30:54.915Z,98395.28
2022-09-15T00:35:57.793Z,98395.53
2022-09-15T00:41:02.363Z,98396.84
2022-09-15T00:46:05.186Z,98397.00
2022-09-15T00:51:09.668Z,98398.91
2022-09-15T00:56:15.538Z,98407.47
2022-09-15T01:01:18.709Z,98413.09
2022-09-15T01:06:26.457Z,98410.06
2022-09-15T01:11:31.229Z,98408.69
2022-09-15T01:16:41.393Z,98413.25
2022-09-15T01:21:46.791Z,98417.25
2022-09-15T01:27:00.097Z,98409.94
2022-09-15T01:32:26.148Z,98405.59
2022-09-15T01:37:31.670Z,98399.69
2022-09-15T01:42:35.225Z,98382.97
2022-09-15T01:47:40.563Z,98386.16
2022-09-15T01:52:45.681Z,98387.22
2022-09-15T01:57:48.462Z,98390.16
2022-09-15T02:02:57.813Z,98399.78
2022-09-15T02:08:05.080Z,98401.69
2022-09-15T02:13:13.179Z,98407.53
2022-09-15T02:18:19.224Z,98403.78
2022-09-15T02:23:26.827Z,98408.03
2022-09-15T02:28:32.019Z,98405.59
2022-09-15T02:33:38.753Z,98412.28
2022-09-15T02:38:46.387Z,98413.31
2022-09-15T02:43:50.246Z,98415.44
2022-09-15T02:48:54.334Z,98421.31
2022-09-15T02:53:57.029Z,98420.50
2022-09-15T02:58:59.769Z,98419.13
2022-09-15T03:04:05.188Z,98412.34
2022-09-15T03:09:08.981Z,98415.84
2022-09-15T03:14:11.845Z,98420.91
2022-09-15T03:19:15.966Z,98416.81
2022-09-15T03:24:19.715Z,98418.69
2022-09-15T03:29:22.479Z,98421.88
2022-09-15T03:34:26.701Z,98413.81
2022-09-15T03:39:29.484Z,98415.91
2022-09-15T03:44:32.260Z,98430.66
2022-09-15T03:49:40.223Z,98431.22
2022-09-15T03:54:42.947Z,98426.88
2022-09-15T03:59:45.653Z,98424.81
2022-09-15T04:04:49.745Z,98424.00
2022-09-15T04:09:52.540Z,98423.72
2022-09-15T04:14:55.490Z,98429.38
2022-09-15T04:19:59.620Z,98431.22
2022-09-15T04:25:02.365Z,98434.28
2022-09-15T04:30:05.974Z,98441.28
2022-09-15T04:35:11.104Z,98428.06
2022-09-15T04:40:14.134Z,98433.78
2022-09-15T04:45:17.051Z,98430.78
2022-09-15T04:50:21.071Z,98434.06
2022-09-15T04:55:23.770Z,98430.50
2022-09-15T05:00:27.033Z,98430.50
2022-09-15T05:05:31.104Z,98436.75
2022-09-15T05:10:34.105Z,98432.66
2022-09-15T05:15:36.867Z,98430.19
2022-09-15T05:20:40.897Z,98428.53
2022-09-15T05:25:43.585Z,98438.47
2022-09-15T05:30:46.274Z,98438.84
2022-09-15T05:35:53.868Z,98440.47
2022-09-15T05:41:02.812Z,98437.56
2022-09-15T05:46:06.501Z,98449.94
2022-09-15T05:51:10.724Z,98446.66
2022-09-15T05:56:14.947Z,98454.53
2022-09-15T06:01:19.353Z,98452.41
2022-09-15T06:06:24.342Z,98457.81
2022-09-15T06:11:28.643Z,98461.06
2022-09-15T06:16:33.352Z,98468.09
2022-09-15T06:21:37.507Z,98481.31
2022-09-15T06:26:40.336Z,98482.13
2022-09-15T06:31:43.074Z,98483.44
2022-09-15T06:36:47.210Z,98494.22
2022-09-15T06:42:02.339Z,98482.13
2022-09-15T06:47:07.262Z,98486.22
2022-09-15T06:52:11.415Z,98487.63
2022-09-15T06:57:14.264Z,98493.09
2022-09-15T07:02:17.017Z,98496.69
2022-09-15T07:07:21.186Z,98506.09
2022-09-15T07:12:23.859Z,98511.00
2022-09-15T07:17:27.292Z,98512.06
2022-09-15T07:22:31.586Z,98525.03
2022-09-15T07:27:34.252Z,98522.56
2022-09-15T07:32:37.302Z,98520.25
2022-09-15T07:37:41.337Z,98518.09
2022-09-15T07:42:44.354Z,98524.56
2022-09-15T07:47:47.113Z,98520.56
2022-09-15T07:52:51.206Z,98517.16
2022-09-15T07:57:59.956Z,98529.81
2022-09-15T08:03:02.656Z,98540.44
2022-09-15T08:08:06.965Z,98548.03
2022-09-15T08:13:09.742Z,98556.19
2022-09-15T08:18:12.572Z,98556.78
2022-09-15T08:23:16.668Z,98584.31
2022-09-15T08:28:19.392Z,98594.63
2022-09-15T08:33:22.363Z,98584.50
2022-09-15T08:38:26.497Z,98581.22
2022-09-15T08:43:32.513Z,98581.06
2022-09-15T08:48:39.860Z,98596.34
2022-09-15T08:53:46.776Z,98607.22
2022-09-15T08:58:50.795Z,98607.31
2022-09-15T09:04:23.935Z,98610.41
2022-09-15T09:09:34.061Z,98612.06
2022-09-15T09:14:45.971Z,98608.78
2022-09-15T09:19:59.222Z,98612.59
2022-09-15T09:25:21.131Z,98611.75
2022-09-15T09:30:30.619Z,98622.78
2022-09-15T09:35:35.528Z,98628.50
2022-09-15T09:40:41.413Z,98630.38
2022-09-15T09:45:45.859Z,98627.09
2022-09-15T09:50:49.613Z,98626.69
2022-09-15T09:55:55.101Z,98620.47
2022-09-15T10:01:10.630Z,98620.22
2022-09-15T10:06:18.178Z,98604.03
2022-09-15T10:11:23.977Z,98608.47
2022-09-15T10:16:27.603Z,98619.25
2022-09-15T10:21:30.416Z,98621.94
2022-09-15T10:26:36.007Z,98613.84
2022-09-15T10:31:38.735Z,98612.69
2022-09-15T10:36:41.493Z,98617.59
2022-09-15T10:41:49.062Z,98617.28
2022-09-15T10:47:05.740Z,98609.91
2022-09-15T10:52:15.080Z,98610.25
2022-09-15T10:57:33.096Z,98611.38
2022-09-15T11:03:06.874Z,98614.97
2022-09-15T11:08:38.636Z,98609.59
2022-09-15T11:13:51.270Z,98604.94
2022-09-15T11:19:03.735Z,98601.97
2022-09-15T11:24:25.203Z,98610.16
2022-09-15T11:29:32.219Z,98614.97
2022-09-15T11:34:37.600Z,98612.94
2022-09-15T11:39:45.600Z,98618.09
2022-09-15T11:44:49.834Z,98618.91
2022-09-15T11:49:57.072Z,98628.56
2022-09-15T11:55:04.682Z,98626.69
2022-09-15T12:00:13.410Z,98629.31
2022-09-15T12:05:19.479Z,98630.88
2022-09-15T12:10:24.758Z,98631.09
2022-09-15T12:15:29.400Z,98636.41
2022-09-15T12:20:37.015Z,98636.91
2022-09-15T12:25:45.064Z,98633.31
2022-09-15T12:30:50.412Z,98634.38
2022-09-15T12:35:53.252Z,98640.84
2022-09-15T12:40:58.950Z,98647.63
2022-09-15T12:46:03.272Z,98652.06
2022-09-15T12:51:10.363Z,98644.19
2022-09-15T12:56:23.569Z,98653.91
2022-09-15T13:01:49.747Z,98649.81
2022-09-15T13:07:24.938Z,98652.53
2022-09-15T13:12:32.082Z,98652.78
2022-09-15T13:17:36.364Z,98656.06
2022-09-15T13:22:43.953Z,98655.81
2022-09-15T13:27:49.656Z,98654.75
2022-09-15T13:32:58.840Z,98663.66
2022-09-15T13:38:32.406Z,98654.50
2022-09-15T13:43:50.423Z,98656.88
2022-09-15T13:49:19.304Z,98657.53
2022-09-15T13:54:22.049Z,98651.56
2022-09-15T13:59:28.349Z,98636.09
2022-09-15T14:04:32.920Z,98644.19
2022-09-15T14:09:39.782Z,98643.13
2022-09-15T14:14:44.535Z,98645.50
2022-09-15T14:19:49.932Z,98647.63
2022-09-15T14:24:54.024Z,98645.41
2022-09-15T14:29:58.369Z,98645.91
2022-09-15T14:35:06.448Z,98645.59
2022-09-15T14:40:19.955Z,98646.91
2022-09-15T14:50:57.669Z,98653.84
2022-09-15T14:56:07.897Z,98646.22
2022-09-15T15:01:15.642Z,98648.13
2022-09-15T15:06:29.455Z,98640.25
2022-09-15T15:11:34.516Z,98636.47
2022-09-15T15:16:38.090Z,98634.84
2022-09-15T15:21:43.636Z,98644.34
2022-09-15T15:26:47.154Z,98635.44
2022-09-15T15:31:49.951Z,98636.47
2022-09-15T15:37:03.298Z,98642.94
2022-09-15T15:42:08.934Z,98643.53
2022-09-15T15:47:25.539Z,98624.66
2022-09-15T15:52:29.619Z,98647.84
2022-09-15T15:57:36.311Z,98642.94
2022-09-15T16:02:39.050Z,98645.06
2022-09-15T16:07:43.897Z,98647.19
2022-09-15T16:12:46.650Z,98634.75
2022-09-15T16:17:49.828Z,98635.00
2022-09-15T16:22:53.959Z,98637.69
2022-09-15T16:27:56.788Z,98639.25
2022-09-15T16:32:59.618Z,98635.25
2022-09-15T16:38:03.718Z,98649.25
2022-09-15T16:43:11.076Z,98651.13
2022-09-15T16:48:14.008Z,98654.53
2022-09-15T16:53:19.668Z,98660.41
2022-09-15T16:58:23.163Z,98662.53
2022-09-15T17:03:26.947Z,98664.63
2022-09-15T17:08:32.652Z,98662.41
2022-09-15T17:13:35.471Z,98658.91
2022-09-15T17:18:38.183Z,98670.50
2022-09-15T17:23:44.590Z,98662.63
2022-09-15T17:28:47.785Z,98670.41
2022-09-15T17:33:53.037Z,98667.69
2022-09-15T17:38:57.138Z,98671.69
2022-09-15T17:43:59.898Z,98668.41
2022-09-15T17:49:02.589Z,98669.72
2022-09-15T17:54:07.403Z,98667.50
2022-09-15T17:59:13.073Z,98668.31
2022-09-15T18:04:18.919Z,98682.88
2022-09-15T18:09:23.039Z,98675.00
2022-09-15T18:14:25.798Z,98690.59
2022-09-15T18:19:28.594Z,98681.97
2022-09-15T18:24:32.643Z,98696.47
2022-09-15T18:29:35.445Z,98703.41
2022-09-15T18:34:38.183Z,98716.91
2022-09-15T18:39:42.345Z,98704.47
2022-09-15T18:44:45.222Z,98704.72
2022-09-15T18:49:47.987Z,98705.41
2022-09-15T18:54:55.981Z,98709.75
2022-09-15T18:59:58.705Z,98706.47
2022-09-15T19:05:01.433Z,98703.75
2022-09-15T19:10:06.258Z,98706.94
2022-09-15T19:15:11.258Z,98712.81
2022-09-15T19:20:15.996Z,98716.31
2022-09-15T19:25:21.363Z,98723.00
2022-09-15T19:30:24.092Z,98725.69
2022-09-15T19:35:26.832Z,98728.16
2022-09-15T19:40:31.519Z,98748.53
2022-09-15T19:45:35.152Z,98743.63
2022-09-15T19:50:39.256Z,98740.34
2022-09-15T19:55:43.375Z,98746.59
2022-09-15T20:00:52.976Z,98740.00
2022-09-15T20:05:57.596Z,98749.16
2022-09-15T20:11:05.380Z,98751.28
2022-09-15T20:16:08.911Z,98752.31
2022-09-15T20:21:21.756Z,98751.75
2022-09-15T20:26:32.014Z,98752.19
2022-09-15T20:31:35.038Z,98755.94
2022-09-15T20:36:39.347Z,98765.66
2022-09-15T20:41:45.668Z,98769.31
2022-09-15T20:46:48.495Z,98772.59
2022-09-15T20:51:51.606Z,98777.38
2022-09-15T20:56:55.855Z,98782.19
2022-09-15T21:01:58.658Z,98778.91
2022-09-15T21:07:01.425Z,98778.31
2022-09-15T21:12:06.054Z,98774.81
2022-09-15T21:17:08.757Z,98767.88
2022-09-15T21:22:11.495Z,98774.22
2022-09-15T21:27:27.377Z,98784.19
2022-09-15T21:32:30.299Z,98791.06
2022-09-15T21:37:33.109Z,98793.97
2022-09-15T21:42:37.282Z,98787.56
2022-09-15T21:47:39.919Z,98797.38
2022-09-15T21:52:42.614Z,98793.84
2022-09-15T21:57:47.055Z,98803.22
2022-09-15T22:02:52.212Z,98799.13
2022-09-15T22:07:55.161Z,98792.91
2022-09-15T22:13:04.087Z,98799.34
2022-09-15T22:18:07.383Z,98797.72
2022-09-15T22:23:10.332Z,98801.44
2022-09-15T22:28:14.380Z,98804.00
2022-09-15T22:33:17.129Z,98808.34
2022-09-15T22:38:19.898Z,98805.06
2022-09-15T22:43:24.521Z,98802.97
2022-09-15T22:48:27.226Z,98799.69
2022-09-15T22:53:29.911Z,98802.38
2022-09-15T22:58:34.277Z,98806.09
2022-09-15T23:03:37.082Z,98803.41
2022-09-15T23:08:39.936Z,98800.16
2022-09-15T23:13:44.033Z,98800.16
2022-09-15T23:18:46.840Z,98799.09
2022-09-15T23:23:50.309Z,98787.97
2022-09-15T23:28:54.733Z,98790.66
2022-09-15T23:33:57.495Z,98787.13
2022-09-15T23:39:00.298Z,98790.28
2022-09-15T23:44:05.005Z,98786.78
2022-09-15T23:49:07.812Z,98791.94
2022-09-15T23:54:11.222Z,98801.31
2022-09-15T23:59:15.455Z,98791.22
